Greenbush, MN

11:00 AM CDT on July 05, 2015 (GMT -0500)
APRSWXNET | | Change Station
CLOSE
Current Station
Personal Weather Station
Location: Pencer, MN
Elevation: 1082 ft
Nearby Weather Stations

Elev 1082 ft 48.85 °N, 95.80 °W | Updated 22 minutes ago

Thunderstorm
Thunderstorm
68 °F
Feels Like 68 °F
N
0
Wind Variable Wind from NE
Gusts 4.0 mph

Today
High -- | Low -- °F
--% Chance of Precip.
Yesterday
High -- | Low -- °F
Precip. -- in
5:28 AM 9:29 PM
Waning Gibbous, 84% visible
Pressure 29.77 in
Visibility 7.0 miles
Clouds Scattered Clouds 3500 ft
Dew Point 67 °F
Humidity 95%
Rainfall in
Snow Depth Not available.
UV 6 out of 12
Pollen 2.20 out of 12
Air Quality Not available.
Flu Activity Not available.
METAR KROX 051554Z AUTO 05004KT 7SM -RA SCT035 20/17 A2977 RMK AO2 LTG DSNT SW THRU N

More Conditions Fewer Conditions

Pressure 29.77 in
Visibility 7.0 miles
Clouds Scattered Clouds 3500 ft
Dew Point 67 °F
Humidity 95%
Rainfall in
Snow Depth Not available.
UV 6 out of 12
Pollen 2.20 out of 12
Air Quality Not available.
Flu Activity Not available.
METAR KROX 051554Z AUTO 05004KT 7SM -RA SCT035 20/17 A2977 RMK AO2 LTG DSNT SW THRU N

More Conditions Fewer Conditions

10-Day Weather Forecast

×

Almanac

Astronomy

Jul. 05, 2015 Rise Set
Actual Time
Civil Twilight
Nautical Twilight
Astronomical Twilight
Moon
Length of Visible Light
Length of Day
Tomorrow will be .
, % of the Moon is Illuminated

Today's Extremes

State Highs State Lows

Community

WunderPhotos

Upload Photos

1,835,300 photos uploaded!

WunderBlogs® & News

Nearby

Air Quality

  Air Quality AQ Index Pollutant
Not available.

Snow Depth

Station Depth Elevation

Earthquake Activity

City Distance Mag. Time & Date
Minimum magnitude displayed is 2.5.

Coastal Water Temperatures

Place Temperature

Stations

Nearby Weather Stations

Station Location Temp. Windchill Dew Point Humidity Wind Precip. Elev Updated Type